Time;durP1;ratioP1;P1;durP2;ratioP2;P2;SDS_P1;SDS_P2;PMS_P1;PMS_P2;Temp;Humidity;BMP_temperature;BMP_pressure;BME280_temperature;BME280_humidity;BME280_pressure;Samples;Min_cycle;Max_cycle;Signal;HPM_P1;HPM_P2
2023/07/17 00:01:43;;;;;;;16.65;10.93;;;;;;;16.46;97.82;99436.00;5066525;28;20044;-43
2023/07/17 00:04:09;;;;;;;13.93;10.85;;;;;;;16.38;98.21;99428.59;5050108;28;20055;-43
2023/07/17 00:06:35;;;;;;;15.35;10.55;;;;;;;16.28;98.65;99403.88;5082102;28;20036;-43
2023/07/17 00:09:01;;;;;;;16.52;11.45;;;;;;;16.39;98.66;99432.91;5067400;28;20064;-41
2023/07/17 00:11:26;;;;;;;17.83;11.38;;;;;;;16.37;98.89;99432.19;5067205;28;20067;-43
2023/07/17 00:13:52;;;;;;;16.10;11.05;;;;;;;16.37;98.96;99426.09;5050823;28;20139;-43
2023/07/17 00:16:20;;;;;;;18.58;11.82;;;;;;;16.20;99.15;99407.91;5066366;28;20126;-42
2023/07/17 00:18:46;;;;;;;14.25;10.98;;;;;;;16.36;99.23;99432.25;5067328;28;20788;-42
2023/07/17 00:21:12;;;;;;;16.13;11.25;;;;;;;16.30;99.52;99428.25;5049649;28;20040;-44
2023/07/17 00:23:38;;;;;;;16.23;11.02;;;;;;;16.19;99.45;99406.22;5067680;28;20040;-43
2023/07/17 00:26:04;;;;;;;13.23;10.43;;;;;;;16.32;99.54;99433.41;5048937;28;20051;-43
2023/07/17 00:28:31;;;;;;;17.55;11.32;;;;;;;16.31;99.68;99432.56;5066657;28;20120;-43
2023/07/17 00:30:59;;;;;;;17.20;11.40;;;;;;;16.30;99.60;99425.63;5082718;28;20075;-43
2023/07/17 00:33:25;;;;;;;15.80;11.20;;;;;;;16.28;99.66;99424.84;5082535;28;20040;-43
2023/07/17 00:35:53;;;;;;;18.23;11.33;;;;;;;16.27;99.62;99419.72;5061886;28;20043;-43
2023/07/17 00:38:20;;;;;;;15.10;11.05;;;;;;;16.24;100.00;99423.38;5066344;28;20044;-43
2023/07/17 00:40:46;;;;;;;14.50;11.45;;;;;;;16.22;100.00;99427.03;5049619;28;20040;-43
2023/07/17 00:43:12;;;;;;;19.92;11.63;;;;;;;16.21;100.00;99428.81;5065889;28;20048;-42
2023/07/17 00:45:39;;;;;;;22.23;10.98;;;;;;;16.04;100.00;99408.00;5050085;28;20051;-42
2023/07/17 00:48:05;;;;;;;15.93;10.85;;;;;;;16.16;100.00;99423.00;5032683;28;20075;-43
2023/07/17 00:50:32;;;;;;;15.45;10.63;;;;;;;16.19;100.00;99424.59;5048297;28;20136;-42
2023/07/17 00:52:57;;;;;;;19.00;11.55;;;;;;;16.19;100.00;99433.31;5049024;28;20054;-42
2023/07/17 00:55:24;;;;;;;16.98;11.43;;;;;;;16.19;100.00;99432.44;5049180;28;20578;-42
2023/07/17 00:57:50;;;;;;;16.90;11.15;;;;;;;16.16;100.00;99428.25;5066191;28;20067;-42
2023/07/17 01:00:17;;;;;;;15.55;10.98;;;;;;;16.15;100.00;99423.94;5065399;28;20068;-43
2023/07/17 01:02:44;;;;;;;15.10;10.77;;;;;;;16.16;100.00;99424.78;5066297;28;20044;-41
2023/07/17 01:05:10;;;;;;;12.75;9.98;;;;;;;16.16;100.00;99427.41;5045870;28;20040;-42
2023/07/17 01:07:39;;;;;;;15.60;10.88;;;;;;;16.16;100.00;99437.91;5051259;28;20068;-41
2023/07/17 01:10:06;;;;;;;13.65;10.45;;;;;;;16.17;100.00;99436.97;5065190;28;20036;-42
2023/07/17 01:12:36;;;;;;;16.00;11.00;;;;;;;16.18;100.00;99433.38;5083294;28;20036;-42
2023/07/17 01:15:03;;;;;;;16.70;11.05;;;;;;;16.15;100.00;99436.22;5045373;28;20052;-43
2023/07/17 01:17:33;;;;;;;17.65;11.55;;;;;;;15.97;100.00;99409.31;5030584;28;20131;-40
2023/07/17 01:19:59;;;;;;;13.45;10.30;;;;;;;16.13;100.00;99438.91;5066337;28;20037;-41
2023/07/17 01:22:33;;;;;;;14.00;11.23;;;;;;;16.10;100.00;99444.34;5082834;28;20059;-41
2023/07/17 01:24:59;;;;;;;15.90;11.45;;;;;;;16.09;100.00;99435.66;5032690;28;20094;-43
2023/07/17 01:27:25;;;;;;;15.25;11.13;;;;;;;16.11;100.00;99446.06;5051658;28;20783;-43
2023/07/17 01:29:51;;;;;;;16.40;12.48;;;;;;;15.97;100.00;99420.66;5029745;28;20048;-42
2023/07/17 01:32:20;;;;;;;14.48;11.38;;;;;;;16.10;100.00;99437.34;5045516;28;20055;-41
2023/07/17 01:34:46;;;;;;;17.75;12.77;;;;;;;16.10;100.00;99439.97;5051017;28;20036;-41
2023/07/17 01:37:12;;;;;;;17.70;11.57;;;;;;;16.13;100.00;99448.56;5066315;28;20045;-43
2023/07/17 01:39:38;;;;;;;20.17;12.90;;;;;;;15.94;100.00;99410.34;5067448;28;20451;-45
2023/07/17 01:42:05;;;;;;;17.70;12.73;;;;;;;15.82;100.00;99395.34;5064967;28;20040;-43
2023/07/17 01:44:31;;;;;;;17.77;12.57;;;;;;;16.15;100.00;99442.28;5032628;28;20079;-43
2023/07/17 01:46:58;;;;;;;20.42;13.32;;;;;;;16.01;100.00;99419.53;5028395;28;20584;-43
2023/07/17 01:49:24;;;;;;;17.33;12.70;;;;;;;16.18;100.00;99441.25;5047804;28;20071;-43
2023/07/17 01:51:50;;;;;;;17.58;12.52;;;;;;;16.19;100.00;99454.28;5044912;28;20136;-43
2023/07/17 01:54:16;;;;;;;18.42;12.75;;;;;;;16.20;100.00;99450.72;5067175;28;20790;-42
2023/07/17 01:56:43;;;;;;;19.17;13.10;;;;;;;16.21;100.00;99449.81;5045393;28;20111;-42
2023/07/17 01:59:10;;;;;;;17.67;11.80;;;;;;;16.22;100.00;99453.25;5045782;28;20103;-42
2023/07/17 02:01:36;;;;;;;18.58;12.60;;;;;;;16.20;100.00;99435.00;5059863;28;20072;-43
2023/07/17 02:04:01;;;;;;;17.70;13.48;;;;;;;16.23;100.00;99440.03;5048357;28;20503;-47
2023/07/17 02:06:28;;;;;;;18.77;13.75;;;;;;;16.24;100.00;99435.63;5066950;28;20040;-42
2023/07/17 02:08:55;;;;;;;20.55;12.63;;;;;;;16.25;100.00;99443.41;5019472;28;20032;-42
2023/07/17 02:11:27;;;;;;;17.20;13.25;;;;;;;16.23;100.00;99434.78;5057841;28;20453;-43
2023/07/17 02:13:55;;;;;;;20.23;13.27;;;;;;;16.30;100.00;99446.59;5069762;28;20037;-42
2023/07/17 02:16:23;;;;;;;19.77;13.32;;;;;;;16.32;100.00;99446.53;5051184;28;20527;-42
2023/07/17 02:18:51;;;;;;;18.77;13.32;;;;;;;16.33;100.00;99449.03;5048839;28;20120;-42
2023/07/17 02:21:17;;;;;;;19.38;12.63;;;;;;;16.35;100.00;99447.16;5055275;28;20048;-42
2023/07/17 02:23:44;;;;;;;17.10;12.43;;;;;;;16.38;100.00;99460.06;5069624;28;20044;-42
2023/07/17 02:26:11;;;;;;;18.30;12.85;;;;;;;16.40;100.00;99457.38;5068431;28;20457;-43
2023/07/17 02:28:37;;;;;;;18.92;12.82;;;;;;;16.44;100.00;99461.47;5069960;28;20033;-42
2023/07/17 02:31:04;;;;;;;17.77;13.18;;;;;;;16.46;100.00;99454.38;5074745;28;20043;-42
2023/07/17 02:33:30;;;;;;;17.05;12.57;;;;;;;16.50;100.00;99459.34;5040932;28;20049;-42
2023/07/17 02:35:56;;;;;;;17.35;12.88;;;;;;;16.52;100.00;99457.47;5051351;28;20543;-43
2023/07/17 02:38:23;;;;;;;19.88;12.43;;;;;;;16.54;100.00;99458.19;5085972;28;20033;-41
2023/07/17 02:40:49;;;;;;;16.45;12.95;;;;;;;16.55;100.00;99461.66;5052686;28;20547;-45
2023/07/17 02:43:15;;;;;;;18.45;12.95;;;;;;;16.43;100.00;99438.84;5068923;28;20531;-43
2023/07/17 02:45:43;;;;;;;17.45;13.20;;;;;;;16.57;100.00;99466.81;5068859;28;20070;-42
2023/07/17 02:48:09;;;;;;;19.88;13.10;;;;;;;16.61;100.00;99471.81;5054089;28;20048;-42
2023/07/17 02:50:35;;;;;;;19.40;12.93;;;;;;;16.64;99.99;99469.03;5069004;28;20063;-43
2023/07/17 02:53:02;;;;;;;19.08;12.63;;;;;;;16.67;100.00;99474.06;5068476;28;20562;-42
2023/07/17 02:55:28;;;;;;;19.52;13.60;;;;;;;16.66;99.94;99466.28;5068470;28;20060;-44
2023/07/17 02:57:54;;;;;;;21.75;13.00;;;;;;;16.68;99.62;99472.28;5068307;28;20119;-42
2023/07/17 03:00:21;;;;;;;18.13;13.05;;;;;;;16.72;99.54;99468.53;5052284;28;20041;-43
2023/07/17 03:02:48;;;;;;;20.80;13.75;;;;;;;16.61;99.33;99448.19;5052012;28;20143;-42
2023/07/17 03:05:15;;;;;;;16.67;13.20;;;;;;;16.80;99.02;99477.59;5068844;28;20162;-42
2023/07/17 03:07:44;;;;;;;19.73;12.63;;;;;;;16.84;98.90;99476.47;5047644;28;20581;-42
2023/07/17 03:10:12;;;;;;;20.83;13.32;;;;;;;16.89;98.42;99477.03;5048730;28;20036;-41
2023/07/17 03:12:38;;;;;;;26.63;17.08;;;;;;;16.83;98.43;99460.81;5059123;28;20032;-44
2023/07/17 03:15:05;;;;;;;21.77;15.13;;;;;;;16.96;98.16;99476.66;5068510;28;20044;-44
2023/07/17 03:17:32;;;;;;;20.02;13.82;;;;;;;17.01;97.56;99466.69;5051757;28;20044;-42
2023/07/17 03:20:03;;;;;;;21.65;13.07;;;;;;;17.06;97.15;99477.75;5067140;28;20500;-42
2023/07/17 03:22:30;;;;;;;22.25;13.65;;;;;;;17.11;96.87;99467.78;5051022;28;20048;-43
2023/07/17 03:24:56;;;;;;;24.83;13.00;;;;;;;17.14;96.68;99473.69;5068008;28;20809;-41
2023/07/17 03:27:22;;;;;;;21.70;12.85;;;;;;;17.17;96.33;99465.56;5067949;28;20059;-42
2023/07/17 03:29:48;;;;;;;19.67;12.32;;;;;;;17.07;95.78;99438.22;5068395;28;20553;-42
2023/07/17 03:32:14;;;;;;;19.67;11.18;;;;;;;17.31;95.26;99470.81;5069534;28;20035;-43
2023/07/17 03:34:41;;;;;;;34.35;23.30;;;;;;;17.41;94.50;99478.91;5067570;28;20135;-43
2023/07/17 03:37:08;;;;;;;19.27;11.45;;;;;;;17.35;93.75;99464.41;5068188;28;20047;-42
2023/07/17 03:39:34;;;;;;;17.60;11.05;;;;;;;17.52;93.45;99484.31;5068718;28;20044;-43
2023/07/17 03:42:00;;;;;;;18.08;11.43;;;;;;;17.60;92.80;99487.31;5067449;28;20047;-41
2023/07/17 03:44:26;;;;;;;18.33;11.93;;;;;;;17.67;92.36;99483.34;5051179;28;20037;-42
2023/07/17 03:46:52;;;;;;;14.70;10.20;;;;;;;17.68;91.91;99477.13;5068089;28;20048;-43
2023/07/17 03:49:19;;;;;;;18.60;11.68;;;;;;;17.68;90.98;99453.47;5051478;28;20068;-43
2023/07/17 03:51:46;;;;;;;17.52;10.48;;;;;;;17.86;90.47;99479.47;5067820;28;20040;-43
2023/07/17 03:54:12;;;;;;;16.55;11.20;;;;;;;17.89;90.33;99469.59;5067259;28;20039;-44
2023/07/17 03:56:40;;;;;;;15.85;11.13;;;;;;;17.81;90.05;99455.25;5068151;28;20508;-42
2023/07/17 03:59:07;;;;;;;;;;;;;;;17.98;90.11;99465.47;5084337;28;20108;-43
2023/07/17 04:01:33;;;;;;;14.07;10.15;;;;;;;17.99;89.70;99462.75;5066452;28;19969;-44
2023/07/17 04:04:00;;;;;;;15.82;9.82;;;;;;;18.07;89.08;99467.47;5066629;28;20040;-42
2023/07/17 04:06:26;;;;;;;19.10;9.85;;;;;;;18.12;88.56;99468.84;5067210;28;20078;-42
2023/07/17 04:08:52;;;;;;;14.48;10.27;;;;;;;18.20;88.10;99471.81;5048080;28;20089;-43
2023/07/17 04:11:18;;;;;;;14.25;10.70;;;;;;;18.28;87.43;99465.16;5067523;28;20036;-43
2023/07/17 04:13:48;;;;;;;13.55;9.45;;;;;;;18.32;86.76;99461.38;5067494;28;20048;-43
2023/07/17 04:16:16;;;;;;;12.57;9.50;;;;;;;18.41;86.13;99458.94;5050940;28;20048;-43
2023/07/17 04:18:42;;;;;;;14.93;9.00;;;;;;;18.49;85.75;99466.28;5067122;28;20123;-43
2023/07/17 04:21:08;;;;;;;12.20;9.25;;;;;;;18.40;85.24;99438.00;5067132;28;20101;-43
2023/07/17 04:23:34;;;;;;;12.60;8.88;;;;;;;18.51;84.44;99444.19;5067991;28;20048;-45
2023/07/17 04:26:02;;;;;;;12.57;8.52;;;;;;;18.69;83.67;99468.41;5067228;28;20044;-43
2023/07/17 04:28:28;;;;;;;12.57;8.77;;;;;;;18.80;82.69;99468.47;5046419;28;20532;-42
2023/07/17 04:30:55;;;;;;;15.73;9.10;;;;;;;18.88;81.79;99470.56;5060466;28;20044;-42
2023/07/17 04:33:21;;;;;;;12.38;7.93;;;;;;;18.95;81.17;99474.44;5057367;28;20179;-44
2023/07/17 04:35:47;;;;;;;9.63;8.13;;;;;;;18.97;80.53;99467.28;5064927;28;20564;-43
2023/07/17 04:38:13;;;;;;;11.57;7.60;;;;;;;19.10;79.86;99472.50;5064914;28;20131;-43
2023/07/17 04:40:39;;;;;;;15.77;8.63;;;;;;;19.22;79.41;99476.84;5066073;28;20036;-42
2023/07/17 04:43:06;;;;;;;12.20;8.15;;;;;;;19.29;78.84;99472.84;5064854;28;20484;-42
2023/07/17 04:45:34;;;;;;;14.40;7.90;;;;;;;19.38;77.75;99474.78;5065187;28;20083;-42
2023/07/17 04:48:05;;;;;;;11.75;7.40;;;;;;;19.44;77.11;99472.56;5066923;28;20086;-43
2023/07/17 04:50:32;;;;;;;14.85;8.65;;;;;;;19.42;76.48;99457.78;5049897;28;20050;-43
2023/07/17 04:53:00;;;;;;;11.75;7.53;;;;;;;19.65;76.12;99482.47;5066289;28;20036;-43
2023/07/17 04:55:26;;;;;;;10.60;7.65;;;;;;;19.70;75.93;99481.19;5066262;28;20409;-43
2023/07/17 04:57:52;;;;;;;9.85;7.80;;;;;;;19.83;75.29;99486.38;5066671;28;20041;-42
2023/07/17 05:00:21;;;;;;;12.15;7.95;;;;;;;19.89;74.27;99477.97;5041295;28;20048;-41
2023/07/17 05:02:48;;;;;;;13.40;7.80;;;;;;;20.02;73.59;99488.47;5073901;28;20044;-43
2023/07/17 05:05:14;;;;;;;12.10;7.68;;;;;;;20.11;73.48;99496.50;5066813;28;20036;-43
2023/07/17 05:07:41;;;;;;;11.35;7.68;;;;;;;20.21;73.38;99494.00;5047930;28;20423;-42
2023/07/17 05:10:08;;;;;;;9.98;7.57;;;;;;;20.28;73.20;99489.94;5049801;28;20087;-42
2023/07/17 05:12:35;;;;;;;11.25;8.32;;;;;;;20.30;73.01;99480.13;5082505;28;20123;-42
2023/07/17 05:15:00;;;;;;;13.00;9.27;;;;;;;20.39;72.89;99483.88;5080706;28;20131;-42
2023/07/17 05:17:29;;;;;;;15.45;8.50;;;;;;;20.46;73.13;99485.91;5065492;28;20063;-43
2023/07/17 05:19:55;;;;;;;12.88;8.02;;;;;;;20.49;73.00;99485.66;5031357;28;20036;-43
2023/07/17 05:22:21;;;;;;;11.30;8.43;;;;;;;20.61;72.56;99483.88;5034341;28;20062;-43
2023/07/17 05:24:48;;;;;;;15.05;8.63;;;;;;;20.70;72.14;99486.63;5062895;28;20114;-42
2023/07/17 05:27:14;;;;;;;14.82;7.60;;;;;;;20.78;71.11;99478.06;5049118;28;20508;-44
2023/07/17 05:29:40;;;;;;;9.40;6.90;;;;;;;20.85;70.70;99481.91;5064725;28;20131;-43
2023/07/17 05:32:06;;;;;;;10.45;7.70;;;;;;;20.79;70.54;99450.69;5045959;28;20419;-47
2023/07/17 05:34:32;;;;;;;11.93;8.52;;;;;;;21.01;69.87;99479.72;5066200;28;20044;-43
2023/07/17 05:36:58;;;;;;;11.85;7.32;;;;;;;21.03;69.67;99466.41;5031040;28;20098;-43
2023/07/17 05:39:27;;;;;;;9.50;6.35;;;;;;;21.23;68.84;99480.66;5019197;28;20487;-42
2023/07/17 05:41:52;;;;;;;11.73;6.72;;;;;;;21.32;67.56;99480.75;5063008;28;20073;-43
2023/07/17 05:44:19;;;;;;;10.15;6.95;;;;;;;21.40;67.20;99473.03;5053449;28;20516;-42
2023/07/17 05:46:45;;;;;;;11.02;6.90;;;;;;;21.58;67.23;99477.75;5070421;28;20526;-43
2023/07/17 05:49:11;;;;;;;7.53;6.25;;;;;;;21.68;66.75;99478.66;5070154;28;20062;-41
2023/07/17 05:51:37;;;;;;;9.20;6.47;;;;;;;21.81;65.98;99482.00;5071399;28;20037;-44
2023/07/17 05:54:03;;;;;;;11.30;6.40;;;;;;;21.82;65.75;99473.94;5053818;28;20044;-43
2023/07/17 05:56:29;;;;;;;7.07;6.10;;;;;;;21.98;64.62;99480.59;5069445;28;20434;-47
2023/07/17 05:58:55;;;;;;;12.23;6.78;;;;;;;22.09;64.41;99477.88;5068902;28;20044;-43
2023/07/17 06:01:21;;;;;;;12.93;6.63;;;;;;;22.21;64.26;99476.81;5068961;28;20159;-42
2023/07/17 06:03:47;;;;;;;7.50;5.63;;;;;;;22.31;63.47;99475.06;5070770;28;20036;-42
2023/07/17 06:06:13;;;;;;;10.25;6.15;;;;;;;22.38;62.79;99473.56;5064004;28;20044;-43
2023/07/17 06:08:39;;;;;;;12.05;5.85;;;;;;;22.48;62.12;99473.63;5059384;28;20424;-45
2023/07/17 06:11:05;;;;;;;8.27;5.55;;;;;;;22.39;61.83;99430.22;5053971;28;20056;-47
2023/07/17 06:13:31;;;;;;;6.63;5.50;;;;;;;22.74;61.64;99464.25;5071432;28;20539;-44
2023/07/17 06:15:57;;;;;;;8.80;5.40;;;;;;;22.87;61.08;99467.53;5069753;28;20040;-41
2023/07/17 06:18:23;;;;;;;6.03;5.28;;;;;;;23.02;60.13;99462.66;5069815;28;20417;-52
2023/07/17 06:20:49;;;;;;;9.07;5.18;;;;;;;23.17;59.56;99463.94;5070442;28;20036;-51
2023/07/17 06:23:15;;;;;;;5.07;4.50;;;;;;;23.28;59.03;99460.31;5071152;28;20123;-44
2023/07/17 06:25:41;;;;;;;5.57;4.72;;;;;;;23.45;57.79;99472.88;5071106;28;20048;-45
2023/07/17 06:28:08;;;;;;;5.75;4.35;;;;;;;23.59;57.40;99459.25;5070319;28;20032;-48
2023/07/17 06:30:34;;;;;;;6.55;4.38;;;;;;;23.84;56.54;99463.97;5069564;28;20114;-46
2023/07/17 06:33:00;;;;;;;6.95;4.53;;;;;;;24.02;55.68;99456.09;5070958;28;20051;-45
2023/07/17 06:35:26;;;;;;;9.27;4.20;;;;;;;24.36;54.33;99462.59;5070691;28;20044;-47
2023/07/17 06:37:52;;;;;;;6.10;4.35;;;;;;;24.66;53.26;99468.63;5069519;28;20036;-46
2023/07/17 06:40:18;;;;;;;6.43;4.45;;;;;;;25.07;52.57;99462.81;5068139;28;20040;-47
2023/07/17 06:42:43;;;;;;;5.18;4.22;;;;;;;25.77;51.18;99461.16;5051441;28;20041;-49
2023/07/17 06:45:10;;;;;;;5.20;4.30;;;;;;;26.55;49.33;99457.53;5070233;28;20787;-45
2023/07/17 06:47:36;;;;;;;7.20;4.38;;;;;;;27.44;47.01;99454.28;5067808;28;20173;-45
2023/07/17 06:50:02;;;;;;;6.65;3.40;;;;;;;28.08;43.77;99440.09;5068613;28;20040;-46
2023/07/17 06:52:29;;;;;;;9.13;3.80;;;;;;;29.08;42.41;99451.97;5025318;28;20058;-51
2023/07/17 06:54:55;;;;;;;7.68;3.92;;;;;;;30.10;41.20;99453.34;5055284;28;20520;-44
2023/07/17 06:57:22;;;;;;;4.35;3.92;;;;;;;31.17;39.34;99455.47;5085885;28;20044;-50
2023/07/17 06:59:48;;;;;;;6.22;3.67;;;;;;;32.20;38.19;99449.56;5060490;28;20110;-46
2023/07/17 07:02:14;;;;;;;5.55;4.25;;;;;;;33.27;36.48;99455.28;5067255;28;20040;-45
2023/07/17 07:04:40;;;;;;;4.78;3.90;;;;;;;34.00;34.47;99457.84;5069344;28;20127;-43
2023/07/17 07:07:06;;;;;;;5.07;4.40;;;;;;;34.71;33.00;99457.09;5052301;28;20044;-43
2023/07/17 07:09:32;;;;;;;6.82;3.75;;;;;;;35.72;31.76;99449.91;5068380;28;20498;-45
2023/07/17 07:11:58;;;;;;;4.22;3.42;;;;;;;36.60;29.85;99431.56;5051692;28;20078;-44
2023/07/17 07:14:24;;;;;;;4.07;3.58;;;;;;;37.39;28.53;99452.22;5070898;28;20530;-46
2023/07/17 07:16:51;;;;;;;5.57;3.25;;;;;;;38.09;27.63;99463.25;5068937;28;20036;-43
2023/07/17 07:19:17;;;;;;;4.90;3.42;;;;;;;38.58;26.24;99461.09;5032500;28;20056;-43
2023/07/17 07:21:43;;;;;;;7.05;3.60;;;;;;;39.17;25.36;99451.69;5067598;28;20032;-45
2023/07/17 07:24:09;;;;;;;5.00;3.63;;;;;;;39.83;24.62;99450.16;5068102;28;20040;-48
2023/07/17 07:26:36;;;;;;;4.63;3.85;;;;;;;40.17;23.50;99452.59;5067601;28;20041;-44
2023/07/17 07:29:02;;;;;;;4.93;3.20;;;;;;;40.60;23.03;99438.22;5065821;28;20525;-44
2023/07/17 07:31:29;;;;;;;3.70;3.40;;;;;;;41.02;23.39;99456.72;5069460;28;20489;-46
2023/07/17 07:33:55;;;;;;;7.60;5.80;;;;;;;41.36;22.23;99455.47;5069749;28;20070;-47
2023/07/17 07:36:22;;;;;;;3.45;3.15;;;;;;;41.77;21.63;99464.84;5070063;28;20239;-46
2023/07/17 07:38:48;;;;;;;;;;;;;;;41.78;21.53;99462.94;5068370;28;20040;-44
2023/07/17 07:41:14;;;;;;;4.15;3.50;;;;;;;42.01;21.10;99457.16;5069264;28;19923;-47
2023/07/17 07:43:41;;;;;;;4.30;3.90;;;;;;;42.28;20.82;99446.13;5067673;28;20102;-45
2023/07/17 07:46:07;;;;;;;5.22;3.53;;;;;;;42.37;20.43;99444.53;5067922;28;20201;-46
2023/07/17 07:48:33;;;;;;;4.10;3.80;;;;;;;42.63;20.61;99451.75;5068772;28;20548;-46
2023/07/17 07:50:59;;;;;;;5.97;3.88;;;;;;;43.16;20.03;99447.06;5069396;28;20048;-45
2023/07/17 07:53:25;;;;;;;4.68;3.42;;;;;;;43.36;19.05;99446.25;5068057;28;20066;-46
2023/07/17 07:55:50;;;;;;;5.10;3.50;;;;;;;43.17;19.24;99437.75;5067617;28;20051;-45
2023/07/17 07:58:16;;;;;;;4.25;3.58;;;;;;;43.72;19.01;99434.22;5067381;28;20127;-44
2023/07/17 08:00:42;;;;;;;5.70;5.10;;;;;;;44.06;18.63;99426.28;5068018;28;20044;-46
2023/07/17 08:03:08;;;;;;;6.15;4.10;;;;;;;44.17;18.40;99427.88;5067978;28;20128;-44
2023/07/17 08:05:34;;;;;;;4.00;3.60;;;;;;;44.45;18.58;99422.88;5068561;28;20519;-45
2023/07/17 08:08:00;;;;;;;4.13;3.67;;;;;;;44.48;17.99;99430.56;5066523;28;20068;-43
2023/07/17 08:10:26;;;;;;;4.18;3.78;;;;;;;44.34;17.96;99422.09;5067540;28;20118;-44
2023/07/17 08:12:52;;;;;;;4.85;3.70;;;;;;;44.79;17.74;99429.34;5068882;28;20416;-44
2023/07/17 08:15:18;;;;;;;3.97;3.67;;;;;;;45.20;17.80;99420.84;5068302;28;20044;-43
2023/07/17 08:17:44;;;;;;;4.43;3.70;;;;;;;45.50;17.34;99420.63;5068595;28;20576;-47
2023/07/17 08:20:09;;;;;;;5.82;3.75;;;;;;;45.68;16.76;99405.38;5068657;28;20032;-43
2023/07/17 08:22:35;;;;;;;3.83;3.53;;;;;;;45.91;16.79;99410.94;5068990;28;20032;-45
2023/07/17 08:25:02;;;;;;;6.30;4.07;;;;;;;46.21;16.73;99403.50;5050309;28;20516;-43
2023/07/17 08:27:29;;;;;;;3.63;3.25;;;;;;;46.40;16.51;99406.28;5066958;28;20040;-45
2023/07/17 08:29:55;;;;;;;4.30;3.95;;;;;;;46.32;15.86;99407.78;5066704;28;20039;-49
2023/07/17 08:32:21;;;;;;;3.88;3.58;;;;;;;46.42;15.97;99371.06;5068805;28;20040;-45
2023/07/17 08:34:47;;;;;;;7.55;6.85;;;;;;;46.84;15.81;99401.31;5068262;28;20496;-45
2023/07/17 08:37:13;;;;;;;5.88;3.90;;;;;;;46.55;15.70;99403.34;5050079;28;20424;-43
2023/07/17 08:39:39;;;;;;;5.03;3.80;;;;;;;46.63;15.46;99394.47;5067214;28;20040;-45
2023/07/17 08:42:06;;;;;;;4.30;4.00;;;;;;;46.86;15.65;99392.72;5068932;28;20067;-46
2023/07/17 08:44:33;;;;;;;;;;;;;;;46.80;15.64;99399.47;5067186;28;20127;-47
2023/07/17 08:47:03;;;;;;;4.15;3.85;;;;;;;46.93;15.94;99395.97;5066935;28;19916;-47
2023/07/17 08:49:30;;;;;;;5.00;4.50;;;;;;;47.38;15.41;99395.25;5050424;28;20143;-50
2023/07/17 08:51:57;;;;;;;4.57;4.18;;;;;;;47.55;14.56;99386.44;5066678;28;20040;-45
2023/07/17 08:54:23;;;;;;;4.88;4.03;;;;;;;47.58;14.52;99397.66;5032691;28;20082;-45
2023/07/17 08:56:51;;;;;;;4.70;4.30;;;;;;;47.89;14.58;99391.63;5050126;28;20515;-44
2023/07/17 08:59:17;;;;;;;4.43;4.13;;;;;;;47.89;14.61;99364.06;5067562;28;20048;-46
2023/07/17 09:01:43;;;;;;;8.98;6.88;;;;;;;48.16;14.76;99382.56;5067275;28;20033;-45
2023/07/17 09:04:09;;;;;;;6.30;4.67;;;;;;;48.25;14.59;99381.56;5068347;28;20515;-44
2023/07/17 09:06:35;;;;;;;8.50;4.43;;;;;;;47.36;14.23;99377.41;5048654;28;20044;-44
2023/07/17 09:09:01;;;;;;;6.17;4.30;;;;;;;46.62;15.10;99368.88;5067137;28;20052;-46
2023/07/17 09:11:26;;;;;;;4.45;4.15;;;;;;;46.84;14.88;99372.97;5066836;28;20075;-44
2023/07/17 09:13:52;;;;;;;4.70;4.40;;;;;;;46.91;14.84;99365.97;5068340;28;20071;-44
2023/07/17 09:16:23;;;;;;;4.33;4.03;;;;;;;47.14;14.57;99370.56;5066424;28;20044;-45
2023/07/17 09:18:50;;;;;;;6.68;4.10;;;;;;;47.43;14.85;99370.38;5068289;28;20290;-44
2023/07/17 09:21:21;;;;;;;5.93;4.68;;;;;;;48.07;14.54;99370.63;5067103;28;20127;-46
2023/07/17 09:23:53;;;;;;;5.15;4.72;;;;;;;48.18;14.49;99349.97;5083709;28;20040;-45
2023/07/17 09:26:21;;;;;;;4.90;4.60;;;;;;;48.62;14.21;99372.22;5067825;28;20040;-49
2023/07/17 09:28:51;;;;;;;4.53;4.10;;;;;;;48.95;13.94;99370.06;5066865;28;20044;-44
2023/07/17 09:31:28;;;;;;;5.28;4.78;;;;;;;49.21;12.96;99364.78;5067579;28;20167;-49
2023/07/17 09:33:59;;;;;;;4.63;4.32;;;;;;;49.47;13.14;99362.19;5068293;28;20044;-44
2023/07/17 09:36:25;;;;;;;5.18;4.70;;;;;;;49.64;13.28;99354.00;5083132;28;20067;-46
2023/07/17 09:38:52;;;;;;;5.10;4.70;;;;;;;49.76;12.65;99367.25;5066954;28;20040;-44
2023/07/17 09:41:26;;;;;;;5.68;5.18;;;;;;;49.75;13.14;99362.81;5050082;28;20074;-47
2023/07/17 09:44:00;;;;;;;5.40;5.00;;;;;;;49.63;12.76;99364.22;5066781;28;20131;-44
2023/07/17 09:46:27;;;;;;;5.05;4.72;;;;;;;48.56;13.20;99334.00;5067415;28;20519;-46
2023/07/17 09:48:54;;;;;;;5.30;4.70;;;;;;;48.61;13.50;99337.47;5068035;28;20074;-42
2023/07/17 09:51:21;;;;;;;5.00;4.63;;;;;;;49.11;13.39;99357.56;5067681;28;20040;-45
2023/07/17 09:53:48;;;;;;;6.82;5.50;;;;;;;49.41;13.27;99352.44;5066631;28;20066;-44
2023/07/17 09:56:15;;;;;;;5.50;5.10;;;;;;;49.40;12.73;99350.75;5065932;28;20056;-50
2023/07/17 09:58:45;;;;;;;4.82;4.40;;;;;;;46.73;14.42;99351.09;5083159;28;20581;-45
2023/07/17 10:01:15;;;;;;;4.80;4.40;;;;;;;47.30;14.74;99346.38;5067311;28;20102;-46
2023/07/17 10:03:44;;;;;;;4.40;4.10;;;;;;;46.24;14.59;99342.41;5067861;28;20133;-45
2023/07/17 10:06:11;;;;;;;5.38;4.32;;;;;;;46.89;14.92;99337.91;5067302;28;20044;-44
2023/07/17 10:08:38;;;;;;;5.05;4.63;;;;;;;47.73;14.39;99319.44;5065005;28;20048;-45
2023/07/17 10:11:04;;;;;;;;;;;;;;;48.16;14.07;99338.41;5049720;28;20090;-45
2023/07/17 10:13:30;;;;;;;4.95;4.53;;;;;;;48.45;13.77;99340.88;5067588;28;19924;-46
2023/07/17 10:15:57;;;;;;;5.10;4.60;;;;;;;47.57;13.67;99340.13;5048897;28;20573;-45
2023/07/17 10:18:24;;;;;;;4.78;4.38;;;;;;;46.41;14.05;99328.16;5065872;28;20128;-45
2023/07/17 10:20:54;;;;;;;5.97;4.68;;;;;;;46.83;13.72;99322.59;5066327;28;20127;-44
2023/07/17 10:23:24;;;;;;;5.20;4.70;;;;;;;47.40;13.09;99317.81;5067307;28;20036;-44
2023/07/17 10:25:51;;;;;;;5.55;4.55;;;;;;;46.88;13.16;99313.44;5067023;28;20041;-45
2023/07/17 10:28:31;;;;;;;5.07;4.68;;;;;;;47.59;13.88;99322.13;5049764;28;20036;-46
2023/07/17 10:31:04;;;;;;;5.70;4.55;;;;;;;48.22;13.28;99324.22;5069482;28;20049;-45
2023/07/17 10:33:36;;;;;;;4.82;4.43;;;;;;;48.02;12.95;99327.41;5071222;28;20047;-50
2023/07/17 10:36:01;;;;;;;5.05;4.65;;;;;;;48.29;13.21;99323.81;5069135;28;20056;-46
2023/07/17 10:38:29;;;;;;;5.00;4.60;;;;;;;48.87;12.56;99314.78;5052987;28;20542;-45
2023/07/17 10:41:14;;;;;;;5.18;4.82;;;;;;;48.67;12.37;99319.66;5069708;28;20047;-47
2023/07/17 10:43:53;;;;;;;5.15;4.75;;;;;;;48.99;12.42;99313.09;5070294;28;20036;-43
2023/07/17 10:46:18;;;;;;;5.00;4.70;;;;;;;49.21;12.80;99306.75;5052511;28;20397;-47
2023/07/17 10:48:45;;;;;;;5.50;5.00;;;;;;;48.95;12.97;99303.81;5070644;28;20048;-45
2023/07/17 10:51:10;;;;;;;5.72;4.80;;;;;;;48.92;13.06;99301.69;5052957;28;20428;-48
2023/07/17 10:53:36;;;;;;;5.63;5.13;;;;;;;49.10;12.66;99289.63;5064516;28;20068;-47
2023/07/17 10:56:03;;;;;;;5.22;4.82;;;;;;;49.37;12.96;99291.41;5050442;28;20533;-47
2023/07/17 10:58:28;;;;;;;5.70;5.30;;;;;;;49.87;12.49;99292.00;5049446;28;20081;-48
2023/07/17 11:00:55;;;;;;;6.00;5.60;;;;;;;49.15;12.31;99289.50;5066113;28;20041;-49
2023/07/17 11:03:22;;;;;;;4.65;4.30;;;;;;;47.35;13.50;99276.59;5070558;28;20039;-45
2023/07/17 11:05:49;;;;;;;4.32;3.92;;;;;;;46.69;14.11;99272.97;5070454;28;20051;-44
2023/07/17 11:08:15;;;;;;;3.95;3.55;;;;;;;45.30;15.40;99275.25;5068142;28;20051;-46
2023/07/17 11:10:45;;;;;;;5.55;4.35;;;;;;;43.71;16.70;99256.44;5068978;28;20036;-46
2023/07/17 11:13:11;;;;;;;5.05;4.40;;;;;;;44.64;15.70;99268.34;5069706;28;20059;-43
2023/07/17 11:15:38;;;;;;;4.70;4.40;;;;;;;46.18;15.18;99270.16;5068927;28;20036;-45
2023/07/17 11:18:05;;;;;;;4.80;4.50;;;;;;;47.23;14.34;99267.97;5069784;28;20040;-45
2023/07/17 11:20:33;;;;;;;6.40;5.65;;;;;;;48.05;14.30;99257.06;5068908;28;20139;-46
2023/07/17 11:22:59;;;;;;;5.53;4.97;;;;;;;48.43;14.04;99269.44;5068513;28;20040;-47
2023/07/17 11:25:27;;;;;;;5.05;4.75;;;;;;;48.50;13.20;99272.59;5070162;28;20062;-43